Flight Track Log - Related Links

Times and Time Zones

All times are in EST time to prevent confusion due to time zone crossing. See the BOE1 flight status page for this flight to view local times or setup timezone preferences in your user account.

Time Position Orientation Groundspeed Altitude Reporting Facility
EST Latitude Longitude Course Direction KTS MPH feet Rate Location/Type
Wed 12:42:09 PM 47.5497 -122.3240 334° Northwest 171 197 800  Level Seattle Center
Wed 12:43:22 PM 47.5989 -122.3600 313° West 184 212 1,700 1,083 Climbing Seattle Center
Wed 12:44:22 PM 47.6372 -122.4200 291° West 184 212 3,200 1,950 Climbing Seattle Center
Wed 12:45:22 PM 47.6619 -122.5140 North 210 242 5,600 2,900 Climbing Seattle Center
Wed 12:46:22 PM 47.7267 -122.5110 39° Northeast 192 221 9,000 2,700 Climbing Seattle Center
Wed 12:47:22 PM 47.7822 -122.4430 39° Northeast 197 227 11,000 2,150 Climbing Seattle Center
Wed 12:48:22 PM 47.8569 -122.3540 34° Northeast 270 311 13,300 2,500 Climbing Seattle Center
Wed 12:49:22 PM 47.9611 -122.2500 34° Northeast 361 415 16,000 2,650 Climbing Seattle Center
Wed 12:50:22 PM 48.0547 -122.1550 62° Northeast 391 450 18,600 2,750 Climbing Seattle Center
Wed 12:51:22 PM 48.1075 -122.0030 89° East 392 451 21,500 2,600 Climbing Seattle Center
Wed 12:52:22 PM 48.1086 -121.8350 93° East 379 436 23,800 2,300 Climbing Seattle Center
Wed 12:53:22 PM 48.1031 -121.6580 95° East 397 457 26,100 1,950 Climbing Seattle Center
Wed 12:54:22 PM 48.0933 -121.4770 93° East 414 476 27,700 1,650 Climbing Seattle Center
Wed 12:55:22 PM 48.0856 -121.2910 94° East 438 504 29,400 1,700 Climbing Seattle Center
Wed 12:56:22 PM 48.0772 -121.1040 95° East 450 518 31,100 1,300 Climbing Seattle Center
Wed 12:57:22 PM 48.0667 -120.9090 94° East 455 524 32,000 500 Climbing Seattle Center
Wed 12:58:22 PM 48.0581 -120.7260 94° East 476 548 32,100 -1,050 Climbing Seattle Center
Wed 12:59:22 PM 48.0469 -120.5140 94° East 490 564 29,900 -850 Descending Seattle Center
Wed 01:00:22 PM 48.0378 -120.3130 96° East 502 578 30,400 1,000 Climbing Seattle Center
Wed 01:01:22 PM 48.0239 -120.1170 92° East 482 555 31,900 1,000 Climbing Seattle Center
Wed 01:02:22 PM 48.0200 -119.9190 94° East 476 548 32,400 450 Climbing Seattle Center
Wed 01:03:22 PM 48.0097 -119.7080 97° East 488 562 32,800 -100 Climbing Seattle Center
Wed 01:04:22 PM 47.9928 -119.4970 98° East 498 573 32,200 -950 Descending Seattle Center
Wed 01:05:22 PM 47.9733 -119.2930 94° East 508 585 30,900 -50 Descending Seattle Center
Wed 01:06:22 PM 47.9642 -119.1010 95° East 487 560 32,100 800 Climbing Seattle Center
Wed 01:07:22 PM 47.9522 -118.8940 96° East 482 555 32,500 500 Climbing Seattle Center
Wed 01:08:22 PM 47.9381 -118.6840 95° East 492 566 33,100 -1,650 Climbing Seattle Center
Wed 01:09:22 PM 47.9256 -118.4710 95° East 504 580 29,200 -800 Descending Seattle Center
Wed 01:10:22 PM 47.9147 -118.2760 96° East 496 571 31,500 1,450 Climbing Seattle Center
Wed 01:11:22 PM 47.8994 -118.0730 99° East 491 565 32,100 -2,250 Climbing Seattle Center
Wed 01:12:22 PM 47.8753 -117.8480 98° East 486 559 27,000 -450 Descending Seattle Center
Wed 01:13:22 PM 47.8572 -117.6500 95° East 491 565 31,200 2,850 Climbing Seattle Center
Wed 01:14:22 PM 47.8453 -117.4560 96° East 485 558 32,700 850 Climbing Seattle Center
Wed 01:15:22 PM 47.8308 -117.2530 96° East 479 551 32,900 -1,150 Climbing Seattle Center
Wed 01:16:22 PM 47.8158 -117.0440 78° East 495 570 30,400 -750 Descending Seattle Center
Wed 01:17:22 PM 47.8442 -116.8480 12° North 491 565 31,400 750 Climbing Seattle Center
Wed 01:18:22 PM 47.9825 -116.8030 316° Northwest 395 455 31,900 450 Climbing Seattle Center
Wed 01:19:22 PM 48.0906 -116.9610 286° West 362 417 32,300 300 Climbing Seattle Center
Wed 01:20:22 PM 48.1331 -117.1790 273° West 431 496 32,500 -400 Climbing Seattle Center
Wed 01:21:22 PM 48.1417 -117.4030 273° West 486 559 31,500 -300 Descending Seattle Center
Wed 01:22:22 PM 48.1503 -117.6230 273° West 506 582 31,900 -1,150 Climbing Seattle Center
Wed 01:23:22 PM 48.1583 -117.8500 276° West 529 609 29,200 -350 Descending Seattle Center
Wed 01:24:22 PM 48.1719 -118.0640 271° West 535 616 31,200 1,300 Climbing Seattle Center
Wed 01:25:22 PM 48.1750 -118.2810 269° West 530 610 31,800 400 Climbing Seattle Center
Wed 01:26:22 PM 48.1733 -118.4990 270° West 530 610 32,000 -900 Climbing Seattle Center
Wed 01:27:22 PM 48.1733 -118.7230 269° West 535 616 30,000 -500 Descending Seattle Center
Wed 01:28:22 PM 48.1708 -118.9220 268° West 535 616 31,000 1,050 Climbing Seattle Center
Wed 01:29:22 PM 48.1661 -119.1360 264° West 535 616 32,100 750 Climbing Seattle Center
Wed 01:30:22 PM 48.1544 -119.3040 263° West 529 609 32,500 500 Climbing Seattle Center
Wed 01:31:22 PM 48.1342 -119.5590 264° West 519 597 33,100 300 Climbing Seattle Center
Wed 01:32:22 PM 48.1200 -119.7670 267° West 519 597 33,100 -100 Level Seattle Center
Wed 01:33:22 PM 48.1136 -119.9750 290° West 519 597 32,900 -50 Descending Seattle Center
Wed 01:34:22 PM 48.1608 -120.1680 359° North 497 572 33,000 100 Climbing Seattle Center
Wed 01:35:22 PM 48.3022 -120.1720 64° Northeast 415 478 33,100 50 Climbing Seattle Center
Wed 01:36:22 PM 48.3611 -119.9880 107° East 319 367 33,100 -700 Level Seattle Center
Wed 01:37:22 PM 48.3194 -119.7890 113° Southeast 329 379 31,700 -2,200 Descending Seattle Center
Wed 01:38:22 PM 48.2653 -119.5960 113° Southeast 422 486 28,700 -250 Descending Seattle Center
Wed 01:39:22 PM 48.2131 -119.4120 113° Southeast 447 514 31,200 1,450 Climbing Seattle Center
Wed 01:40:22 PM 48.1603 -119.2290 112° Southeast 462 532 31,600 400 Climbing Seattle Center
Wed 01:41:22 PM 48.1092 -119.0410 107° East 477 549 32,000 650 Climbing Seattle Center
Wed 01:42:22 PM 48.0683 -118.8460 107° East 490 564 32,900 50 Climbing Seattle Center
Wed 01:43:22 PM 48.0272 -118.6450 105° East 495 570 32,100 -600 Descending Seattle Center
Wed 01:44:22 PM 47.9917 -118.4410 102° East 501 577 31,700 100 Descending Seattle Center
Wed 01:45:22 PM 47.9600 -118.2250 96° East 489 563 32,300 550 Climbing Seattle Center
Wed 01:46:22 PM 47.9444 -118.0210 97° East 489 563 32,800 350 Climbing Seattle Center
Wed 01:47:22 PM 47.9269 -117.8180 101° East 489 563 33,000 100 Climbing Seattle Center
Wed 01:48:22 PM 47.9003 -117.6150 100° East 489 563 33,000  Level Seattle Center
Wed 01:49:22 PM 47.8758 -117.4150 101° East 495 570 33,000  Level Seattle Center
Wed 01:50:22 PM 47.8486 -117.2150 101° East 495 570 33,000  Level Seattle Center
Wed 01:51:22 PM 47.8233 -117.0190 100° East 490 564 33,000  Level Seattle Center
Wed 01:52:22 PM 47.8000 -116.8250 101° East 483 556 33,000  Level Seattle Center
Wed 01:53:22 PM 47.7744 -116.6350 100° East 478 550 33,000  Level Seattle Center
Wed 01:54:22 PM 47.7503 -116.4390 91° East 478 550 33,000  Level Seattle Center
Wed 01:55:22 PM 47.7486 -116.2420 56° Northeast 473 544 33,000  Level Seattle Center
Wed 01:56:22 PM 47.8247 -116.0730 15° North 459 528 33,000  Level Seattle Center
Wed 01:57:22 PM 47.9622 -116.0170 331° Northwest 428 493 33,000  Level Seattle Center
Wed 01:58:22 PM 48.0883 -116.1230 287° West 409 471 33,000  Level Seattle Center
Wed 01:59:22 PM 48.1297 -116.3220 267° West 388 447 33,000  Level Seattle Center
Wed 02:00:22 PM 48.1231 -116.5280 258° West 424 488 33,000  Level Seattle Center
Wed 02:01:22 PM 48.0950 -116.7250 256° West 463 533 33,000  Level Seattle Center
Wed 02:02:22 PM 48.0625 -116.9190 256° West 469 540 33,000  Level Seattle Center
Wed 02:03:22 PM 48.0294 -117.1100 256° West 474 545 33,000  Level Seattle Center
Wed 02:04:22 PM 47.9964 -117.3070 256° West 479 551 33,000  Level Seattle Center
Wed 02:05:22 PM 47.9628 -117.5010 256° West 479 551 33,000  Level Seattle Center
Wed 02:06:22 PM 47.9308 -117.6910 256° West 479 551 33,000  Level Seattle Center
Wed 02:07:22 PM 47.8986 -117.8810 262° West 479 551 33,000  Level Seattle Center
Wed 02:08:22 PM 47.8828 -118.0580 277° West 479 551 33,000  Level Seattle Center
Wed 02:09:22 PM 47.9000 -118.2550 277° West 479 551 33,000  Level Seattle Center
Wed 02:10:22 PM 47.9147 -118.4490 277° West 479 551 33,000  Level Seattle Center
Wed 02:11:22 PM 47.9314 -118.6440 276° West 479 551 33,000  Level Seattle Center
Wed 02:12:22 PM 47.9456 -118.8420 275° West 479 551 33,000  Level Seattle Center
Wed 02:13:22 PM 47.9575 -119.0400 275° West 479 551 33,000  Level Seattle Center
Wed 02:14:22 PM 47.9689 -119.2380 275° West 479 551 33,000  Level Seattle Center
Wed 02:15:22 PM 47.9800 -119.4390 277° West 479 551 33,000  Level Seattle Center
Wed 02:16:22 PM 47.9950 -119.6370 276° West 484 557 33,000  Level Seattle Center
Wed 02:17:22 PM 48.0078 -119.8320 275° West 484 557 33,000  Level Seattle Center
Wed 02:18:22 PM 48.0200 -120.0310 274° West 484 557 33,000  Level Seattle Center
Wed 02:19:22 PM 48.0297 -120.2290 275° West 484 557 33,000  Level Seattle Center
Wed 02:20:22 PM 48.0411 -120.4310 276° West 484 557 33,000  Level Seattle Center
Wed 02:21:22 PM 48.0544 -120.6320 274° West 484 557 33,000  Level Seattle Center
Wed 02:22:22 PM 48.0633 -120.8340 276° West 484 557 33,000  Level Seattle Center
Wed 02:23:22 PM 48.0781 -121.0330 274° West 484 557 33,000  Level Seattle Center
Wed 02:24:22 PM 48.0883 -121.2350 274° West 484 557 33,000  Level Seattle Center
Wed 02:25:22 PM 48.0981 -121.4340 276° West 484 557 33,000  Level Seattle Center
Wed 02:26:22 PM 48.1136 -121.6580 275° West 492 566 33,000  Level Seattle Center
Wed 02:27:22 PM 48.1247 -121.8600 273° West 492 566 33,000  Level Seattle Center
Wed 02:28:22 PM 48.1314 -122.0660 273° West 497 572 33,000  Level Seattle Center
Wed 02:29:22 PM 48.1375 -122.2710 316° Northwest 497 572 33,000  Level Seattle Center
Wed 02:30:22 PM 48.2303 -122.4060 27° Northeast 448 516 33,000  Level Seattle Center
Wed 02:31:22 PM 48.3489 -122.3150 94° East 327 376 33,000  Level Seattle Center
Wed 02:32:22 PM 48.3383 -122.1120 106° East 286 329 33,000  Level Seattle Center
Wed 02:33:22 PM 48.3006 -121.9200 106° East 365 420 33,000  Level Seattle Center
Wed 02:34:22 PM 48.2622 -121.7260 107° East 427 491 33,000  Level Seattle Center
Wed 02:35:22 PM 48.2236 -121.5340 117° Southeast 461 531 33,000  Level Seattle Center
Wed 02:36:22 PM 48.1617 -121.3550 104° East 472 543 33,000  Level Seattle Center
Wed 02:37:22 PM 48.1286 -121.1590 102° East 477 549 33,000  Level Seattle Center
Wed 02:38:22 PM 48.1017 -120.9650 100° East 477 549 33,000  Level Seattle Center
Wed 02:39:22 PM 48.0803 -120.7820 101° East 486 559 33,000  Level Seattle Center
Wed 02:40:22 PM 48.0550 -120.5830 94° East 486 559 33,000 50 Level Seattle Center
Wed 02:41:22 PM 48.0456 -120.3810 95° East 486 559 33,100 100 Climbing Seattle Center
Wed 02:42:22 PM 48.0319 -120.1670 98° East 493 567 33,200 -2,250 Climbing Seattle Center
Wed 02:43:22 PM 48.0117 -119.9530 96° East 511 588 28,600 -1,800 Descending Seattle Center
Wed 02:44:22 PM 47.9972 -119.7490 95° East 511 588 29,600 1,050 Climbing Seattle Center
Wed 02:45:22 PM 47.9844 -119.5440 96° East 506 582 30,700 1,200 Climbing Seattle Center
Wed 02:46:22 PM 47.9694 -119.3340 95° East 501 577 32,000 1,100 Climbing Seattle Center
Wed 02:47:22 PM 47.9558 -119.1230 95° East 501 577 32,900 -2,500 Climbing Seattle Center
Wed 02:48:22 PM 47.9419 -118.9040 96° East 511 588 27,000 -1,700 Descending Seattle Center
Wed 02:49:22 PM 47.9278 -118.6970 97° East 517 595 29,500 1,850 Climbing Seattle Center
Wed 02:50:22 PM 47.9111 -118.4960 95° East 506 582 30,700 1,750 Climbing Seattle Center
Wed 02:51:22 PM 47.9008 -118.3110 94° East 478 550 33,000 1,750 Climbing Seattle Center
Wed 02:52:22 PM 47.8897 -118.1040 96° East 460 529 34,200 1,300 Climbing Seattle Center
Wed 02:53:22 PM 47.8764 -117.9090 97° East 460 529 35,600 1,300 Climbing Seattle Center
Wed 02:54:22 PM 47.8606 -117.7150 97° East 465 535 36,800 1,100 Climbing Seattle Center
Wed 02:55:22 PM 47.8444 -117.5150 97° East 475 547 37,800 1,200 Climbing Seattle Center
Wed 02:56:22 PM 47.8281 -117.3150 96° East 480 552 39,200 1,150 Climbing Seattle Center
Wed 02:57:22 PM 47.8131 -117.1120 97° East 480 552 40,100 1,050 Climbing Seattle Center
Wed 02:58:22 PM 47.7961 -116.9180 96° East 480 552 41,300 850 Climbing Seattle Center
Wed 02:59:22 PM 47.7806 -116.7120 97° East 482 555 41,800 100 Climbing Seattle Center
Wed 03:00:22 PM 47.7647 -116.5090 96° East 482 555 41,500 -700 Descending Seattle Center
Wed 03:01:22 PM 47.7503 -116.3000 99° East 498 573 40,400 -300 Descending Seattle Center
Wed 03:02:22 PM 47.7294 -116.0950 58° Northeast 498 573 40,900 300 Climbing Seattle Center
Wed 03:03:22 PM 47.8011 -115.9230 352° North 453 521 41,000 300 Climbing Seattle Center
Wed 03:04:22 PM 47.9414 -115.9540 311° West 364 419 41,500 400 Climbing Seattle Center
Wed 03:05:22 PM 48.0339 -116.1110 301° West 378 435 41,800 250 Climbing Seattle Center
Wed 03:06:22 PM 48.1081 -116.2930 271° West 440 506 42,000 -1,250 Climbing Seattle Center
Wed 03:07:22 PM 48.1100 -116.5040 269° West 446 513 39,300 -1,200 Descending Seattle Center
Wed 03:08:22 PM 48.1072 -116.7150 266° West 485 558 39,600 650 Climbing Seattle Center
Wed 03:09:22 PM 48.0978 -116.9170 252° West 485 558 40,600 -1,300 Climbing Seattle Center
Wed 03:10:22 PM 48.0564 -117.1060 250° West 485 558 37,000 700 Descending Seattle Center
Wed 03:11:22 PM 48.0106 -117.2940 252° West 485 558 42,000 2,800 Climbing Seattle Center
Wed 03:12:22 PM 47.9706 -117.4820 256° West 485 558 42,600 -350 Climbing Seattle Center
Wed 03:13:22 PM 47.9369 -117.6810 256° West 485 558 41,300 -2,200 Descending Seattle Center
Wed 03:14:22 PM 47.9031 -117.8870 269° West 499 574 38,200 -700 Descending Seattle Center
Wed 03:15:22 PM 47.8997 -118.0820 277° West 480 552 39,900 1,200 Climbing Seattle Center
Wed 03:16:22 PM 47.9169 -118.2820 275° West 480 552 40,600 900 Climbing Seattle Center
Wed 03:17:22 PM 47.9275 -118.4770 275° West 485 558 41,700 300 Climbing Seattle Center
Wed 03:18:22 PM 47.9378 -118.6620 273° West 490 564 41,200 -800 Descending Seattle Center
Wed 03:19:22 PM 47.9458 -118.8720 275° West 502 578 40,100 -500 Descending Seattle Center
Wed 03:20:22 PM 47.9578 -119.0770 277° West 507 583 40,200 -1,150 Climbing Seattle Center
Wed 03:21:22 PM 47.9733 -119.2750 276° West 497 572 37,800 -4,000 Descending Seattle Center
Wed 03:22:22 PM 47.9864 -119.4700 281° West 491 565 32,200 -14,900 Descending Seattle Center
Wed 03:23:22 PM 48.0097 -119.6460 336° Northwest 463 533 8,000 -4,100 Descending Seattle Center
Wed 03:24:22 PM 48.1075 -119.7110 43° Northeast 384 442 24,000 8,000 Climbing Seattle Center
Wed 03:25:22 PM 48.1781 -119.6120 105° East 257 296 24,000  Level Seattle Center
Wed 03:26:22 PM 48.1569 -119.4910 161° South 197 227 24,000  Level Seattle Center
Wed 03:27:22 PM 48.0800 -119.4510 178° South 197 227 24,000  Level Seattle Center
Wed 03:28:22 PM 47.9822 -119.4450 179° South 269 310 24,000 -550 Level Seattle Center
Wed 03:29:22 PM 47.8822 -119.4420 179° South 318 366 22,900 -2,950 Descending Seattle Center
Wed 03:30:22 PM 47.7886 -119.4400 177° South 345 397 18,100 -4,350 Descending Seattle Center
Wed 03:31:22 PM 47.6972 -119.4340 171° South 345 397 14,200 -3,900 Descending Seattle Center
Wed 03:32:22 PM 47.6078 -119.4140 106° East 338 389 10,300 -2,100 Descending Seattle Center
Wed 03:33:22 PM 47.5800 -119.2660 90° East 301 346 10,000 -150 Descending Seattle Center
Wed 03:34:22 PM 47.5792 -119.1090 83° East 308 354 10,000 50 Level Seattle Center
Wed 03:35:22 PM 47.5928 -118.9460 78° East 347 399 10,100 150 Climbing Seattle Center
Wed 03:36:22 PM 47.6144 -118.7890 87° East 372 428 10,300 200 Climbing Seattle Center
Wed 03:37:22 PM 47.6192 -118.6350 188° South 378 435 10,500 -200 Climbing Seattle Center
Wed 03:38:22 PM 47.5383 -118.6520 259° West 230 265 9,900 -200 Descending Seattle Center
Wed 03:39:22 PM 47.5189 -118.7970 269° West 175 201 10,100 150 Climbing Seattle Center
Wed 03:40:22 PM 47.5178 -118.9440 272° West 272 313 10,200 150 Climbing Seattle Center
Wed 03:41:22 PM 47.5208 -119.0950 275° West 330 380 10,400 150 Climbing Seattle Center
Wed 03:42:22 PM 47.5300 -119.2450 279° West 355 409 10,500 50 Climbing Seattle Center
Wed 03:43:22 PM 47.5472 -119.3990 283° West 369 425 10,500 -50 Level Seattle Center
Wed 03:44:22 PM 47.5706 -119.5490 287° West 375 432 10,400 -50 Descending Seattle Center
Wed 03:45:22 PM 47.6000 -119.6960 289° West 375 432 10,400 -150 Level Seattle Center
Wed 03:46:22 PM 47.6333 -119.8440 291° West 375 432 10,100 -200 Descending Seattle Center
Wed 03:47:22 PM 47.6706 -119.9890 293° West 375 432 10,000 50 Descending Seattle Center
Wed 03:48:22 PM 47.7097 -120.1280 263° West 375 432 10,200  Climbing Seattle Center
Wed 03:49:22 PM 47.6989 -120.2630 170° South 349 402 10,000 -100 Descending Seattle Center
Wed 03:50:22 PM 47.6075 -120.2380 100° East 223 257 10,000 150 Level Seattle Center
Wed 03:51:22 PM 47.5892 -120.0810 97° East 192 221 10,300 350 Climbing Seattle Center
Wed 03:52:22 PM 47.5750 -119.9120 97° East 303 349 10,700 300 Climbing Seattle Center
Wed 03:53:22 PM 47.5603 -119.7460 97° East 369 425 10,900 150 Climbing Seattle Center
Wed 03:54:22 PM 47.5456 -119.5770 99° East 393 452 11,000 50 Climbing Seattle Center
Wed 03:55:22 PM 47.5264 -119.4050 100° East 408 470 11,000 50 Level Seattle Center
Wed 03:56:22 PM 47.5072 -119.2390 101° East 413 475 11,100 -50 Climbing Seattle Center
Wed 03:57:22 PM 47.4856 -119.0740 103° East 413 475 10,900 -100 Descending Seattle Center
Wed 03:58:22 PM 47.4594 -118.9050 105° East 413 475 10,900  Level Seattle Center
Wed 03:59:22 PM 47.4308 -118.7430 106° East 413 475 10,900 50 Level Seattle Center
Wed 04:00:22 PM 47.3981 -118.5790 49° Northeast 413 475 11,000  Climbing Seattle Center
Wed 04:01:22 PM 47.4553 -118.4820 279° West 346 398 10,900  Descending Seattle Center
Wed 04:02:22 PM 47.4717 -118.6350 267° West 93 107 11,000 350 Climbing Seattle Center
Wed 04:03:22 PM 47.4667 -118.7890 270° West 255 293 11,600  Climbing Seattle Center
Wed 04:04:22 PM 47.4658 -118.9390 246° West 311 358 11,000 -500 Descending Seattle Center
Wed 04:05:22 PM 47.4292 -119.0590 235° Southwest 333 383 10,600 -650 Descending Seattle Center
Wed 04:06:22 PM 47.3881 -119.1460 233° Southwest 294 338 9,700 -450 Descending Seattle Center
Wed 04:07:22 PM 47.3489 -119.2230 225° Southwest 266 306 9,700 100 Level Seattle Center
Wed 04:08:22 PM 47.3014 -119.2930 204° Southwest 253 291 9,900 -900 Climbing Seattle Center
Wed 04:09:22 PM 47.2350 -119.3370 204° Southwest 246 283 7,900 -2,550 Descending Seattle Center
Wed 04:10:22 PM 47.1728 -119.3770 182° South 252 290 4,800 -2,708 Descending Seattle Center
Wed 04:11:15 PM 47.1122 -119.3800 105° East 211 243 2,800 -1,200 Descending Seattle Center
Wed 04:12:22 PM 47.0975 -119.2980 14° North 165 190 2,400 -142 Descending Seattle Center
Wed 04:13:22 PM 47.1389 -119.2830 341° North 83 96 2,500 -500 Climbing Seattle Center
Wed 04:14:22 PM 47.1850 -119.3070 346° North 82 94 1,400 -700 Descending Seattle Center
Wed 04:15:22 PM 47.2100 -119.3160 346° North 103 119 1,100 -300 Descending Seattle Center

Login

Don't have an account? Register now (free) for customized features, flight alerts, and more!